Time;durP1;ratioP1;P1;durP2;ratioP2;P2;SDS_P1;SDS_P2;PMS_P1;PMS_P2;Temp;Humidity;BMP_temperature;BMP_pressure;BME280_temperature;BME280_humidity;BME280_pressure;Samples;Min_cycle;Max_cycle;Signal;HPM_P1;HPM_P2
2023/06/02 00:02:09;;;;;;;16.13;9.73;;;;;;;;;;5096244;28;20094;-77
2023/06/02 00:04:37;;;;;;;14.13;9.55;;;;;;;;;;5096082;28;20032;-76
2023/06/02 00:07:05;;;;;;;14.57;9.77;;;;;;;;;;5096413;28;20046;-78
2023/06/02 00:09:37;;;;;;;14.43;9.82;;;;;;;;;;5096208;28;20040;-76
2023/06/02 00:12:05;;;;;;;20.58;10.90;;;;;;;;;;5096117;28;20085;-78
2023/06/02 00:14:33;;;;;;;12.88;9.80;;;;;;;;;;5096189;28;20042;-77
2023/06/02 00:17:01;;;;;;;17.17;10.90;;;;;;;;;;5095913;28;20396;-78
2023/06/02 00:19:31;;;;;;;17.45;10.70;;;;;;;;;;5095730;28;20153;-76
2023/06/02 00:22:01;;;;;;;16.85;10.27;;;;;;;;;;5096150;28;20044;-78
2023/06/02 00:24:29;;;;;;;14.27;9.70;;;;;;;;;;5095727;28;20047;-77
2023/06/02 00:26:56;;;;;;;20.90;11.23;;;;;;;;;;5095756;28;20093;-77
2023/06/02 00:29:24;;;;;;;16.17;10.35;;;;;;;;;;5094472;28;20032;-76
2023/06/02 00:31:51;;;;;;;17.77;10.45;;;;;;;;;;5094482;28;20057;-77
2023/06/02 00:34:19;;;;;;;15.07;10.82;;;;;;;;;;5094719;28;20427;-76
2023/06/02 00:36:46;;;;;;;14.43;10.30;;;;;;;;;;5094208;28;20176;-77
2023/06/02 00:39:14;;;;;;;17.70;10.95;;;;;;;;;;5094025;28;20040;-77
2023/06/02 00:41:44;;;;;;;15.30;10.48;;;;;;;;;;5093672;28;20048;-76
2023/06/02 00:44:11;;;;;;;18.63;10.55;;;;;;;;;;5095729;28;20044;-77
2023/06/02 00:46:39;;;;;;;16.60;10.88;;;;;;;;;;5094227;28;20051;-77
2023/06/02 00:49:07;;;;;;;16.25;11.18;;;;;;;;;;5095515;28;20093;-78
2023/06/02 00:51:35;;;;;;;15.00;11.23;;;;;;;;;;5095568;28;20093;-77
2023/06/02 00:54:02;;;;;;;20.52;12.52;;;;;;;;;;5095232;28;20509;-77
2023/06/02 00:56:30;;;;;;;16.92;11.52;;;;;;;;;;5093991;28;20136;-74
2023/06/02 00:58:57;;;;;;;15.38;11.63;;;;;;;;;;5094180;28;20060;-77
2023/06/02 01:01:25;;;;;;;16.80;10.82;;;;;;;;;;5093902;28;20056;-75
2023/06/02 01:03:53;;;;;;;18.75;11.73;;;;;;;;;;5093636;28;20466;-76
2023/06/02 01:06:24;;;;;;;18.30;10.85;;;;;;;;;;5095212;28;20036;-76
2023/06/02 01:08:52;;;;;;;16.45;11.10;;;;;;;;;;5095141;28;20738;-76
2023/06/02 01:11:20;;;;;;;18.48;11.20;;;;;;;;;;5093701;28;20379;-75
2023/06/02 01:13:49;;;;;;;16.55;11.07;;;;;;;;;;5094700;28;20063;-76
2023/06/02 01:16:18;;;;;;;17.77;11.13;;;;;;;;;;5093749;28;20047;-77
2023/06/02 01:18:46;;;;;;;22.52;11.60;;;;;;;;;;5094644;28;20040;-76
2023/06/02 01:21:21;;;;;;;22.05;11.80;;;;;;;;;;5093223;28;20036;-76
2023/06/02 01:23:53;;;;;;;17.35;11.73;;;;;;;;;;5094641;28;20367;-77
2023/06/02 01:26:20;;;;;;;17.00;11.95;;;;;;;;;;5093533;28;20065;-76
2023/06/02 01:28:48;;;;;;;21.55;12.18;;;;;;;;;;5093475;28;20040;-77
2023/06/02 01:31:22;;;;;;;17.80;12.18;;;;;;;;;;5094473;28;20127;-78
2023/06/02 01:33:56;;;;;;;17.90;11.43;;;;;;;;;;5094415;28;20072;-78
2023/06/02 01:36:24;;;;;;;17.27;11.77;;;;;;;;;;5094370;28;20036;-77
2023/06/02 01:38:53;;;;;;;19.08;11.63;;;;;;;;;;5092919;28;20036;-77
2023/06/02 01:41:21;;;;;;;24.83;11.98;;;;;;;;;;5093055;28;20101;-76
2023/06/02 01:43:49;;;;;;;20.13;12.25;;;;;;;;;;5092963;28;20044;-76
2023/06/02 01:46:17;;;;;;;20.98;11.70;;;;;;;;;;5093096;28;20075;-76
2023/06/02 01:48:45;;;;;;;20.02;12.57;;;;;;;;;;5094309;28;20078;-76
2023/06/02 01:51:12;;;;;;;19.20;11.30;;;;;;;;;;5092828;28;20036;-77
2023/06/02 01:53:40;;;;;;;20.38;11.68;;;;;;;;;;5093110;28;20101;-75
2023/06/02 01:56:07;;;;;;;19.17;11.10;;;;;;;;;;5092632;28;20044;-76
2023/06/02 01:58:36;;;;;;;22.63;11.75;;;;;;;;;;5092526;28;20036;-75
2023/06/02 02:01:03;;;;;;;21.30;11.60;;;;;;;;;;5092636;28;20402;-77
2023/06/02 02:03:32;;;;;;;23.85;13.32;;;;;;;;;;5094364;28;20052;-75
2023/06/02 02:06:02;;;;;;;17.85;11.18;;;;;;;;;;5094024;28;20489;-77
2023/06/02 02:08:30;;;;;;;19.48;11.23;;;;;;;;;;5094115;28;20436;-75
2023/06/02 02:10:57;;;;;;;22.58;11.77;;;;;;;;;;5092976;28;20047;-76
2023/06/02 02:13:25;;;;;;;21.83;11.52;;;;;;;;;;5094176;28;20127;-75
2023/06/02 02:15:52;;;;;;;16.73;11.55;;;;;;;;;;5092281;28;20052;-77
2023/06/02 02:18:20;;;;;;;21.13;11.35;;;;;;;;;;5092328;28;20448;-77
2023/06/02 02:20:48;;;;;;;15.95;11.23;;;;;;;;;;5092309;28;20489;-77
2023/06/02 02:23:15;;;;;;;18.50;11.90;;;;;;;;;;5092593;28;20044;-77
2023/06/02 02:25:43;;;;;;;21.52;12.68;;;;;;;;;;5092441;28;20105;-77
2023/06/02 02:28:11;;;;;;;19.85;11.55;;;;;;;;;;5092056;28;20090;-77
2023/06/02 02:30:39;;;;;;;20.02;11.40;;;;;;;;;;5091947;28;20056;-76
2023/06/02 02:33:08;;;;;;;18.50;11.32;;;;;;;;;;5075726;28;20762;-77
2023/06/02 02:35:36;;;;;;;17.33;11.65;;;;;;;;;;5092019;28;20044;-76
2023/06/02 02:38:03;;;;;;;23.20;11.90;;;;;;;;;;5092278;28;20452;-77
2023/06/02 02:40:32;;;;;;;27.55;12.40;;;;;;;;;;5092248;28;20448;-75
2023/06/02 02:43:00;;;;;;;21.33;11.40;;;;;;;;;;5091923;28;20135;-77
2023/06/02 02:45:27;;;;;;;21.85;12.07;;;;;;;;;;5091963;28;20048;-76
2023/06/02 02:47:55;;;;;;;19.20;11.88;;;;;;;;;;5091801;28;20397;-77
2023/06/02 02:50:22;;;;;;;18.42;11.23;;;;;;;;;;5091951;28;20080;-76
2023/06/02 02:52:50;;;;;;;19.98;11.00;;;;;;;;;;5092820;28;20481;-77
2023/06/02 02:55:18;;;;;;;18.33;11.25;;;;;;;;;;5075000;28;20390;-76
2023/06/02 02:57:45;;;;;;;19.00;11.10;;;;;;;;;;5091893;28;20450;-76
2023/06/02 03:00:13;;;;;;;18.55;11.88;;;;;;;;;;5074759;28;20093;-77
2023/06/02 03:02:43;;;;;;;24.98;11.30;;;;;;;;;;5091646;28;20397;-76
2023/06/02 03:05:13;;;;;;;18.67;11.25;;;;;;;;;;5091294;28;20044;-77
2023/06/02 03:07:44;;;;;;;19.70;11.38;;;;;;;;;;5091470;28;20052;-76
2023/06/02 03:10:13;;;;;;;24.65;11.60;;;;;;;;;;5091441;28;20067;-77
2023/06/02 03:12:42;;;;;;;18.10;11.20;;;;;;;;;;5091547;28;20040;-76
2023/06/02 03:15:10;;;;;;;24.13;11.65;;;;;;;;;;5091431;28;20047;-76
2023/06/02 03:17:37;;;;;;;24.52;12.05;;;;;;;;;;5091487;28;20074;-76
2023/06/02 03:20:09;;;;;;;18.88;11.50;;;;;;;;;;5091347;28;20410;-77
2023/06/02 03:22:41;;;;;;;25.85;12.23;;;;;;;;;;5091117;28;20064;-76
2023/06/02 03:25:08;;;;;;;25.02;11.20;;;;;;;;;;5091612;28;20086;-77
2023/06/02 03:27:37;;;;;;;20.20;12.00;;;;;;;;;;5092483;28;20128;-77
2023/06/02 03:30:06;;;;;;;22.17;12.52;;;;;;;;;;5091211;28;20048;-77
2023/06/02 03:32:36;;;;;;;21.77;11.57;;;;;;;;;;5091524;28;20041;-76
2023/06/02 03:35:04;;;;;;;25.52;12.25;;;;;;;;;;5091292;28;20050;-77
2023/06/02 03:37:36;;;;;;;22.95;11.63;;;;;;;;;;5075183;28;20135;-76
2023/06/02 03:40:05;;;;;;;20.92;10.93;;;;;;;;;;5092226;28;20044;-77
2023/06/02 03:42:33;;;;;;;24.15;11.35;;;;;;;;;;5092343;28;20044;-75
2023/06/02 03:45:04;;;;;;;23.17;12.02;;;;;;;;;;5090979;28;20421;-76
2023/06/02 03:47:31;;;;;;;26.95;11.88;;;;;;;;;;5091204;28;20044;-75
2023/06/02 03:49:59;;;;;;;21.77;11.65;;;;;;;;;;5091154;28;20044;-80
2023/06/02 03:52:30;;;;;;;23.25;11.57;;;;;;;;;;5091172;28;20047;-77
2023/06/02 03:54:58;;;;;;;25.50;11.68;;;;;;;;;;5090501;28;20048;-79
2023/06/02 03:57:27;;;;;;;22.35;11.90;;;;;;;;;;5091057;28;20047;-78
2023/06/02 03:59:55;;;;;;;19.30;11.50;;;;;;;;;;5091738;28;20040;-77
2023/06/02 04:02:22;;;;;;;21.38;11.60;;;;;;;;;;5093667;28;20044;-76
2023/06/02 04:04:50;;;;;;;24.77;11.43;;;;;;;;;;5091233;28;20519;-77
2023/06/02 04:07:19;;;;;;;25.70;11.95;;;;;;;;;;5090935;28;20093;-76
2023/06/02 04:09:47;;;;;;;22.98;11.77;;;;;;;;;;5091034;28;20055;-76
2023/06/02 04:12:15;;;;;;;23.73;12.20;;;;;;;;;;5091332;28;20105;-78
2023/06/02 04:14:42;;;;;;;26.80;12.88;;;;;;;;;;5090649;28;20040;-76
2023/06/02 04:17:10;;;;;;;26.33;13.07;;;;;;;;;;5092329;28;20044;-76
2023/06/02 04:19:37;;;;;;;21.67;11.65;;;;;;;;;;5094706;28;20036;-76
2023/06/02 04:22:05;;;;;;;21.05;11.20;;;;;;;;;;5093962;28;20044;-75
2023/06/02 04:24:34;;;;;;;29.25;12.35;;;;;;;;;;5077970;28;20048;-76
2023/06/02 04:27:01;;;;;;;21.10;10.88;;;;;;;;;;5095714;28;20393;-77
2023/06/02 04:29:30;;;;;;;20.33;11.55;;;;;;;;;;5094396;28;20044;-77
2023/06/02 04:31:58;;;;;;;23.95;11.13;;;;;;;;;;5094461;28;20074;-77
2023/06/02 04:34:31;;;;;;;20.40;11.55;;;;;;;;;;5094471;28;20048;-77
2023/06/02 04:37:00;;;;;;;19.73;11.70;;;;;;;;;;5094223;28;20044;-77
2023/06/02 04:39:28;;;;;;;15.65;10.65;;;;;;;;;;5094391;28;20375;-78
2023/06/02 04:41:57;;;;;;;20.73;10.23;;;;;;;;;;5094564;28;20051;-78
2023/06/02 04:44:25;;;;;;;17.15;10.80;;;;;;;;;;5077620;28;20044;-77
2023/06/02 04:46:53;;;;;;;19.58;11.40;;;;;;;;;;5094678;28;20068;-79
2023/06/02 04:49:21;;;;;;;20.80;11.82;;;;;;;;;;5094262;28;20085;-78
2023/06/02 04:51:49;;;;;;;17.55;11.05;;;;;;;;;;5094263;28;20040;-79
2023/06/02 04:54:17;;;;;;;17.70;10.50;;;;;;;;;;5094937;28;20066;-79
2023/06/02 04:56:47;;;;;;;21.15;11.25;;;;;;;;;;5093465;28;20064;-78
2023/06/02 04:59:16;;;;;;;18.88;11.68;;;;;;;;;;5093929;28;20097;-78
2023/06/02 05:01:45;;;;;;;15.55;10.57;;;;;;;;;;5095127;28;20035;-79
2023/06/02 05:04:13;;;;;;;18.42;10.85;;;;;;;;;;5093820;28;20084;-79
2023/06/02 05:06:41;;;;;;;16.15;9.57;;;;;;;;;;5093675;28;20052;-79
2023/06/02 05:09:10;;;;;;;16.17;10.02;;;;;;;;;;5093734;28;20044;-80
2023/06/02 05:11:37;;;;;;;17.40;10.75;;;;;;;;;;5093683;28;20048;-79
2023/06/02 05:14:05;;;;;;;15.95;10.27;;;;;;;;;;5093689;28;20047;-81
2023/06/02 05:16:35;;;;;;;20.58;10.15;;;;;;;;;;5093755;28;20048;-79
2023/06/02 05:19:05;;;;;;;16.02;10.55;;;;;;;;;;5094715;28;20046;-80
2023/06/02 05:21:33;;;;;;;16.05;9.57;;;;;;;;;;5093476;28;20510;-79
2023/06/02 05:24:02;;;;;;;14.95;10.05;;;;;;;;;;5093570;28;20409;-81
2023/06/02 05:26:30;;;;;;;18.02;11.88;;;;;;;;;;5093646;28;20115;-80
2023/06/02 05:28:57;;;;;;;13.73;9.20;;;;;;;;;;5094644;28;20043;-80
2023/06/02 05:31:25;;;;;;;11.07;8.88;;;;;;;;;;5093141;28;20461;-80
2023/06/02 05:33:54;;;;;;;12.82;9.02;;;;;;;;;;5093440;28;20048;-79
2023/06/02 05:36:22;;;;;;;13.55;9.50;;;;;;;;;;5093088;28;20036;-79
2023/06/02 05:38:49;;;;;;;11.82;8.60;;;;;;;;;;5094447;28;20040;-79
2023/06/02 05:41:17;;;;;;;12.20;8.27;;;;;;;;;;5093504;28;20036;-79
2023/06/02 05:43:45;;;;;;;12.07;8.80;;;;;;;;;;5093057;28;20040;-79
2023/06/02 05:46:13;;;;;;;13.02;8.65;;;;;;;;;;5092929;28;20067;-80
2023/06/02 05:48:41;;;;;;;12.02;7.82;;;;;;;;;;5076270;28;20409;-79
2023/06/02 05:51:09;;;;;;;14.32;8.32;;;;;;;;;;5092886;28;20043;-80
2023/06/02 05:53:39;;;;;;;10.38;7.03;;;;;;;;;;5094084;28;20040;-79
2023/06/02 05:56:07;;;;;;;12.60;7.78;;;;;;;;;;5093018;28;20306;-80
2023/06/02 05:58:38;;;;;;;9.15;7.25;;;;;;;;;;5093202;28;20036;-80
2023/06/02 06:01:09;;;;;;;13.57;7.53;;;;;;;;;;5092769;28;20134;-79
2023/06/02 06:03:39;;;;;;;10.27;7.15;;;;;;;;;;5092722;28;20044;-80
2023/06/02 06:06:08;;;;;;;13.15;8.13;;;;;;;;;;5092573;28;20044;-81
2023/06/02 06:08:35;;;;;;;9.30;7.78;;;;;;;;;;5094011;28;20044;-80
2023/06/02 06:11:03;;;;;;;44.30;9.43;;;;;;;;;;5094414;28;20043;-81
2023/06/02 06:13:31;;;;;;;13.63;7.63;;;;;;;;;;5092547;28;20078;-79
2023/06/02 06:15:58;;;;;;;15.15;7.80;;;;;;;;;;5092614;28;20040;-81
2023/06/02 06:18:26;;;;;;;11.52;7.32;;;;;;;;;;5093873;28;20093;-79
2023/06/02 06:20:54;;;;;;;12.77;6.97;;;;;;;;;;5092561;28;20494;-82
2023/06/02 06:23:22;;;;;;;10.73;6.88;;;;;;;;;;5092738;28;20071;-79
2023/06/02 06:25:50;;;;;;;12.18;6.82;;;;;;;;;;5092543;28;20035;-77
2023/06/02 06:28:19;;;;;;;9.60;6.78;;;;;;;;;;5092385;28;20028;-78
2023/06/02 06:30:47;;;;;;;11.95;7.10;;;;;;;;;;5092311;28;20052;-79
2023/06/02 06:33:16;;;;;;;12.80;6.80;;;;;;;;;;5092323;28;20131;-79
2023/06/02 06:35:45;;;;;;;11.98;6.70;;;;;;;;;;5092204;28;20055;-78
2023/06/02 06:38:13;;;;;;;13.70;5.80;;;;;;;;;;5075492;28;20414;-78
2023/06/02 06:40:41;;;;;;;10.27;6.30;;;;;;;;;;5091955;28;20518;-78
2023/06/02 06:43:08;;;;;;;20.40;7.00;;;;;;;;;;5092108;28;20139;-79
2023/06/02 06:45:56;;;;;;;10.60;6.43;;;;;;;;;;5078293;28;20040;-79
2023/06/02 06:48:24;;;;;;;13.80;6.30;;;;;;;;;;5091956;28;20052;-78
2023/06/02 06:50:51;;;;;;;27.80;7.05;;;;;;;;;;5093263;28;20101;-79
2023/06/02 06:53:19;;;;;;;9.13;5.88;;;;;;;;;;5093509;28;20115;-78
2023/06/02 06:55:48;;;;;;;10.25;6.10;;;;;;;;;;5093338;28;20432;-79
2023/06/02 06:58:15;;;;;;;9.82;5.78;;;;;;;;;;5091911;28;20040;-78
2023/06/02 07:00:43;;;;;;;7.57;5.60;;;;;;;;;;5093015;28;20032;-78
2023/06/02 07:03:10;;;;;;;97.07;11.07;;;;;;;;;;5092952;28;20044;-79
2023/06/02 07:05:38;;;;;;;57.97;10.38;;;;;;;;;;5093024;28;20044;-78
2023/06/02 07:08:05;;;;;;;14.45;5.93;;;;;;;;;;5092976;28;20047;-79
2023/06/02 07:10:33;;;;;;;17.55;6.80;;;;;;;;;;5092988;28;20395;-77
2023/06/02 07:13:00;;;;;;;13.38;5.97;;;;;;;;;;5093264;28;20068;-81
2023/06/02 07:15:28;;;;;;;8.35;5.82;;;;;;;;;;5093077;28;20042;-78
2023/06/02 07:17:55;;;;;;;10.02;6.28;;;;;;;;;;5092839;28;20040;-80
2023/06/02 07:20:23;;;;;;;8.15;5.80;;;;;;;;;;5092764;28;20044;-77
2023/06/02 07:22:50;;;;;;;9.68;6.38;;;;;;;;;;5091474;28;20047;-81
2023/06/02 07:25:18;;;;;;;10.07;5.97;;;;;;;;;;5092808;28;20047;-81
2023/06/02 07:27:45;;;;;;;8.77;5.75;;;;;;;;;;5092722;28;20123;-78
2023/06/02 07:30:13;;;;;;;17.33;5.75;;;;;;;;;;5092559;28;20052;-79
2023/06/02 07:32:40;;;;;;;9.80;5.78;;;;;;;;;;5092755;28;20032;-79
2023/06/02 07:35:08;;;;;;;7.63;5.90;;;;;;;;;;5092758;28;20044;-80
2023/06/02 07:37:35;;;;;;;9.07;6.60;;;;;;;;;;5092539;28;20040;-76
2023/06/02 07:40:03;;;;;;;9.23;6.70;;;;;;;;;;5092513;28;20044;-79
2023/06/02 07:42:31;;;;;;;10.38;5.53;;;;;;;;;;5092604;28;20039;-78
2023/06/02 07:44:58;;;;;;;11.50;6.20;;;;;;;;;;5092563;28;20408;-80
2023/06/02 07:47:26;;;;;;;10.23;5.72;;;;;;;;;;5092563;28;20516;-79
2023/06/02 07:49:53;;;;;;;8.45;5.47;;;;;;;;;;5092517;28;20036;-80
2023/06/02 07:52:21;;;;;;;7.38;5.10;;;;;;;;;;5094813;28;20482;-78
2023/06/02 07:54:48;;;;;;;9.40;5.57;;;;;;;;;;5096482;28;20036;-78
2023/06/02 07:57:18;;;;;;;7.90;5.60;;;;;;;;;;5099529;28;20075;-82
2023/06/02 07:59:46;;;;;;;9.48;5.72;;;;;;;;;;5096640;28;20048;-79
2023/06/02 08:02:13;;;;;;;8.05;5.03;;;;;;;;;;5096639;28;20035;-80
2023/06/02 08:04:41;;;;;;;8.52;5.20;;;;;;;;;;5095244;28;20048;-78
2023/06/02 08:07:09;;;;;;;9.18;4.93;;;;;;;;;;5096805;28;20119;-78
2023/06/02 08:09:36;;;;;;;9.57;4.60;;;;;;;;;;5095018;28;20115;-76
2023/06/02 08:12:04;;;;;;;8.50;4.30;;;;;;;;;;5096222;28;20039;-79
2023/06/02 08:14:35;;;;;;;7.28;4.70;;;;;;;;;;5101318;28;20124;-78
2023/06/02 08:17:02;;;;;;;11.40;8.65;;;;;;;;;;5100322;28;20060;-80
2023/06/02 08:19:30;;;;;;;6.80;5.22;;;;;;;;;;5101704;28;20398;-79
2023/06/02 08:22:00;;;;;;;7.47;5.72;;;;;;;;;;5101904;28;20040;-80
2023/06/02 08:24:28;;;;;;;7.05;4.70;;;;;;;;;;5101715;28;20040;-78
2023/06/02 08:26:57;;;;;;;5.88;4.60;;;;;;;;;;5101777;28;20039;-81
2023/06/02 08:29:30;;;;;;;6.35;4.95;;;;;;;;;;5101289;28;20070;-79
2023/06/02 08:31:57;;;;;;;10.77;5.15;;;;;;;;;;5099674;28;20463;-78
2023/06/02 08:34:25;;;;;;;8.85;4.60;;;;;;;;;;5095785;28;20054;-78
2023/06/02 08:37:00;;;;;;;8.52;4.60;;;;;;;;;;5094272;28;20047;-78
2023/06/02 08:39:29;;;;;;;6.53;4.18;;;;;;;;;;5095643;28;20077;-78
2023/06/02 08:41:57;;;;;;;6.88;4.40;;;;;;;;;;5097403;28;20387;-80
2023/06/02 08:44:24;;;;;;;6.68;4.45;;;;;;;;;;5096021;28;20044;-78
2023/06/02 08:47:01;;;;;;;7.53;4.47;;;;;;;;;;5095332;28;20040;-78
2023/06/02 08:49:29;;;;;;;9.80;3.95;;;;;;;;;;5096140;28;20037;-77
2023/06/02 08:52:01;;;;;;;6.00;4.45;;;;;;;;;;5095728;28;20036;-78
2023/06/02 08:54:30;;;;;;;5.90;4.15;;;;;;;;;;5095538;28;20089;-76
2023/06/02 08:56:59;;;;;;;6.95;4.88;;;;;;;;;;5095394;28;20043;-78
2023/06/02 08:59:26;;;;;;;8.07;5.72;;;;;;;;;;5095301;28;20119;-78
2023/06/02 09:01:55;;;;;;;9.13;5.00;;;;;;;;;;5095617;28;20036;-78
2023/06/02 09:04:23;;;;;;;5.72;4.95;;;;;;;;;;5095116;28;20048;-76
2023/06/02 09:07:10;;;;;;;6.05;4.90;;;;;;;;;;5094958;28;20469;-77
2023/06/02 09:09:45;;;;;;;8.57;4.72;;;;;;;;;;5094859;28;20046;-76
2023/06/02 09:12:14;;;;;;;7.57;4.30;;;;;;;;;;5093803;28;20093;-77
2023/06/02 09:14:42;;;;;;;5.85;4.97;;;;;;;;;;5095078;28;20036;-76
2023/06/02 09:17:25;;;;;;;8.88;4.63;;;;;;;;;;5095039;28;20042;-78
2023/06/02 09:19:54;;;;;;;6.85;4.90;;;;;;;;;;5076936;28;20051;-78
2023/06/02 09:22:21;;;;;;;9.75;5.90;;;;;;;;;;5094744;28;20040;-77
2023/06/02 09:24:49;;;;;;;6.63;4.53;;;;;;;;;;5094814;28;20048;-75
2023/06/02 09:27:17;;;;;;;7.00;4.78;;;;;;;;;;5094681;28;20040;-77
2023/06/02 09:29:46;;;;;;;5.82;4.22;;;;;;;;;;5094370;28;20093;-76
2023/06/02 09:32:17;;;;;;;10.25;4.50;;;;;;;;;;5094328;28;20486;-78
2023/06/02 09:34:45;;;;;;;6.15;4.50;;;;;;;;;;5094401;28;20051;-80
2023/06/02 09:37:17;;;;;;;7.22;4.13;;;;;;;;;;5094456;28;20090;-78
2023/06/02 09:39:48;;;;;;;7.78;5.57;;;;;;;;;;5094848;28;20052;-80
2023/06/02 09:42:17;;;;;;;9.32;5.40;;;;;;;;;;5094421;28;20043;-79
2023/06/02 09:45:04;;;;;;;8.75;5.00;;;;;;;;;;5094563;28;20052;-80
2023/06/02 09:47:40;;;;;;;5.97;4.70;;;;;;;;;;5093974;28;20077;-77
2023/06/02 09:50:09;;;;;;;10.00;5.90;;;;;;;;;;5094224;28;20040;-79
2023/06/02 09:52:37;;;;;;;7.60;4.80;;;;;;;;;;5094623;28;20040;-78
2023/06/02 09:55:07;;;;;;;11.05;6.93;;;;;;;;;;5094013;28;20067;-79
2023/06/02 09:57:37;;;;;;;7.82;4.60;;;;;;;;;;5093084;28;20132;-77
2023/06/02 10:00:11;;;;;;;5.55;4.18;;;;;;;;;;5093910;28;20086;-78
2023/06/02 10:02:39;;;;;;;6.93;4.72;;;;;;;;;;5094850;28;20063;-76
2023/06/02 10:05:07;;;;;;;9.85;4.25;;;;;;;;;;5093876;28;20068;-79
2023/06/02 10:07:34;;;;;;;9.55;6.50;;;;;;;;;;5092419;28;20051;-78
2023/06/02 10:10:11;;;;;;;8.30;4.90;;;;;;;;;;5094123;28;20043;-77
2023/06/02 10:12:41;;;;;;;7.78;4.35;;;;;;;;;;5092444;28;20051;-77
2023/06/02 10:15:09;;;;;;;8.05;4.10;;;;;;;;;;5091935;28;20135;-80
2023/06/02 10:17:52;;;;;;;9.25;4.38;;;;;;;;;;5093702;28;20032;-77
2023/06/02 10:20:25;;;;;;;4.90;3.58;;;;;;;;;;5093445;28;20524;-76
2023/06/02 10:22:56;;;;;;;7.50;4.55;;;;;;;;;;5093473;28;20039;-77
2023/06/02 10:25:31;;;;;;;7.82;4.72;;;;;;;;;;5093810;28;20072;-76
2023/06/02 10:28:02;;;;;;;8.20;4.50;;;;;;;;;;5093464;28;20044;-79
2023/06/02 10:30:35;;;;;;;16.38;4.57;;;;;;;;;;5092192;28;20460;-76
2023/06/02 10:33:02;;;;;;;10.10;7.75;;;;;;;;;;5093743;28;20428;-80
2023/06/02 10:35:50;;;;;;;8.93;4.30;;;;;;;;;;5093432;28;20085;-76
2023/06/02 10:38:24;;;;;;;11.48;4.10;;;;;;;;;;5093336;28;20119;-77
2023/06/02 10:40:54;;;;;;;8.68;4.28;;;;;;;;;;5093525;28;20852;-77
2023/06/02 10:43:22;;;;;;;6.07;4.10;;;;;;;;;;5094094;28;20044;-78
2023/06/02 10:45:50;;;;;;;6.20;3.90;;;;;;;;;;5093509;28;20071;-77
2023/06/02 10:48:36;;;;;;;7.22;4.28;;;;;;;;;;5093404;28;20040;-77
2023/06/02 10:51:04;;;;;;;9.50;4.50;;;;;;;;;;5093130;28;20037;-79
2023/06/02 10:53:32;;;;;;;6.90;5.43;;;;;;;;;;5093213;28;20044;-78
2023/06/02 10:56:19;;;;;;;8.38;5.75;;;;;;;;;;5093254;28;20036;-78
2023/06/02 10:58:49;;;;;;;9.27;4.20;;;;;;;;;;5093213;28;20123;-79
2023/06/02 11:01:36;;;;;;;7.28;4.72;;;;;;;;;;5093214;28;20043;-78
2023/06/02 11:04:23;;;;;;;9.15;4.55;;;;;;;;;;5093259;28;20461;-79
2023/06/02 11:07:12;;;;;;;7.30;4.25;;;;;;;;;;5092979;28;20217;-81
2023/06/02 11:09:42;;;;;;;8.98;6.50;;;;;;;;;;5092718;28;20040;-76
2023/06/02 11:12:11;;;;;;;8.77;4.88;;;;;;;;;;5093161;28;20043;-78
2023/06/02 11:14:57;;;;;;;5.78;3.95;;;;;;;;;;5093307;28;20398;-77
2023/06/02 11:17:32;;;;;;;10.93;5.00;;;;;;;;;;5092755;28;20048;-76
2023/06/02 11:20:00;;;;;;;6.72;5.25;;;;;;;;;;5093195;28;20044;-78
2023/06/02 11:22:27;;;;;;;7.88;4.57;;;;;;;;;;5092859;28;20033;-77
2023/06/02 11:24:55;;;;;;;7.45;3.85;;;;;;;;;;5091294;28;20091;-76
2023/06/02 11:27:43;;;;;;;6.45;4.53;;;;;;;;;;5099210;28;20097;-75
2023/06/02 11:30:12;;;;;;;7.30;3.83;;;;;;;;;;5099318;28;20126;-78
2023/06/02 11:32:40;;;;;;;10.82;4.22;;;;;;;;;;5096641;28;20104;-78
2023/06/02 11:35:08;;;;;;;8.45;4.22;;;;;;;;;;5100285;28;20044;-80
2023/06/02 11:37:38;;;;;;;5.85;4.57;;;;;;;;;;5099692;28;20039;-78
2023/06/02 11:40:09;;;;;;;7.63;4.60;;;;;;;;;;5084956;28;20044;-77
2023/06/02 11:42:41;;;;;;;7.45;4.13;;;;;;;;;;5084593;28;20490;-77
2023/06/02 11:45:19;;;;;;;7.60;4.07;;;;;;;;;;5099052;28;20123;-79
2023/06/02 11:47:47;;;;;;;8.05;4.53;;;;;;;;;;5098856;28;20044;-79
2023/06/02 11:50:16;;;;;;;10.43;6.80;;;;;;;;;;5087893;28;20086;-78
2023/06/02 11:52:44;;;;;;;5.38;3.88;;;;;;;;;;5096104;28;20028;-77
2023/06/02 11:55:12;;;;;;;9.18;4.00;;;;;;;;;;5098813;28;20051;-78
2023/06/02 11:57:43;;;;;;;5.78;3.90;;;;;;;;;;5098915;28;20393;-79
2023/06/02 12:00:19;;;;;;;10.60;4.40;;;;;;;;;;5099041;28;20133;-79
2023/06/02 12:02:53;;;;;;;6.38;5.10;;;;;;;;;;5099020;28;20379;-80
2023/06/02 12:05:31;;;;;;;7.85;5.00;;;;;;;;;;5091491;28;20040;-79
2023/06/02 12:08:20;;;;;;;6.68;4.00;;;;;;;;;;5077179;28;20036;-77
2023/06/02 12:10:48;;;;;;;7.32;4.50;;;;;;;;;;5078594;28;20037;-79
2023/06/02 12:13:29;;;;;;;6.30;4.78;;;;;;;;;;5078768;28;20107;-77
2023/06/02 12:16:17;;;;;;;5.90;4.28;;;;;;;;;;5078875;28;20143;-77
2023/06/02 12:18:47;;;;;;;6.28;4.78;;;;;;;;;;5078825;28;20098;-77
2023/06/02 12:21:28;;;;;;;6.35;4.10;;;;;;;;;;5077471;28;20058;-78
2023/06/02 12:23:56;;;;;;;7.93;4.40;;;;;;;;;;5078299;28;20045;-76
2023/06/02 12:26:25;;;;;;;8.50;4.65;;;;;;;;;;5078617;28;20490;-75
2023/06/02 12:28:52;;;;;;;6.28;4.30;;;;;;;;;;5078555;28;20432;-80
2023/06/02 12:31:20;;;;;;;6.60;4.28;;;;;;;;;;5078570;28;20044;-77
2023/06/02 12:33:48;;;;;;;6.20;3.80;;;;;;;;;;5078658;28;20049;-78
2023/06/02 12:36:16;;;;;;;5.05;3.80;;;;;;;;;;5078995;28;20093;-81
2023/06/02 12:38:44;;;;;;;5.97;4.00;;;;;;;;;;5075651;28;20489;-77
2023/06/02 12:41:11;;;;;;;6.80;4.68;;;;;;;;;;5075766;28;20520;-79
2023/06/02 12:43:40;;;;;;;5.70;4.20;;;;;;;;;;5075285;28;20042;-77
2023/06/02 12:46:08;;;;;;;6.53;4.10;;;;;;;;;;5075812;28;20477;-77
2023/06/02 12:48:36;;;;;;;6.32;3.85;;;;;;;;;;5075285;28;20064;-77
2023/06/02 12:51:04;;;;;;;9.02;7.38;;;;;;;;;;5075201;28;20074;-79
2023/06/02 12:53:34;;;;;;;8.38;5.88;;;;;;;;;;5074938;28;20041;-77
2023/06/02 12:56:03;;;;;;;9.48;4.60;;;;;;;;;;5074189;28;20043;-80
2023/06/02 12:58:31;;;;;;;6.00;4.38;;;;;;;;;;5075250;28;20495;-78
2023/06/02 13:01:00;;;;;;;9.48;4.35;;;;;;;;;;5075058;28;20036;-79
2023/06/02 13:03:28;;;;;;;6.22;4.00;;;;;;;;;;5075338;28;20046;-78
2023/06/02 13:05:57;;;;;;;8.13;4.10;;;;;;;;;;5074725;28;20052;-79
2023/06/02 13:08:25;;;;;;;7.15;3.47;;;;;;;;;;5074653;28;20051;-77
2023/06/02 13:10:57;;;;;;;5.90;3.85;;;;;;;;;;5074959;28;20041;-78
2023/06/02 13:13:25;;;;;;;7.70;3.92;;;;;;;;;;5074573;28;20040;-76
2023/06/02 13:15:53;;;;;;;8.25;4.13;;;;;;;;;;5074617;28;20094;-78
2023/06/02 13:18:21;;;;;;;5.45;4.07;;;;;;;;;;5074790;28;20044;-78
2023/06/02 13:20:54;;;;;;;9.55;4.05;;;;;;;;;;5074686;28;20489;-77
2023/06/02 13:23:22;;;;;;;6.40;4.50;;;;;;;;;;5074994;28;20047;-77
2023/06/02 13:25:49;;;;;;;6.00;4.35;;;;;;;;;;5074628;28;20043;-76
2023/06/02 13:28:17;;;;;;;5.10;4.03;;;;;;;;;;5074552;28;20040;-78
2023/06/02 13:31:11;;;;;;;10.15;4.80;;;;;;;;;;5089560;28;20067;-78
2023/06/02 13:33:38;;;;;;;10.85;4.32;;;;;;;;;;5073150;28;20569;-77
2023/06/02 13:36:06;;;;;;;7.38;4.00;;;;;;;;;;5074410;28;20036;-76
2023/06/02 13:38:34;;;;;;;7.35;4.28;;;;;;;;;;5074126;28;20048;-76
2023/06/02 13:41:01;;;;;;;8.35;4.10;;;;;;;;;;5074384;28;20043;-81
2023/06/02 13:43:29;;;;;;;7.05;3.80;;;;;;;;;;5074502;28;20120;-76
2023/06/02 13:45:57;;;;;;;7.07;4.65;;;;;;;;;;5073937;28;20041;-77
2023/06/02 13:48:25;;;;;;;8.18;4.43;;;;;;;;;;5072780;28;20238;-73
2023/06/02 13:50:52;;;;;;;7.05;4.68;;;;;;;;;;5084343;28;20051;-70
2023/06/02 13:53:20;;;;;;;5.88;3.78;;;;;;;;;;5094355;28;20436;-74
2023/06/02 13:55:47;;;;;;;6.38;4.13;;;;;;;;;;5095137;28;20060;-74
2023/06/02 13:58:15;;;;;;;8.43;3.88;;;;;;;;;;5096200;28;20040;-74
2023/06/02 14:00:42;;;;;;;6.13;4.20;;;;;;;;;;5093164;28;20047;-75
2023/06/02 14:03:10;;;;;;;7.57;4.10;;;;;;;;;;5094137;28;20496;-77
2023/06/02 14:05:37;;;;;;;8.38;4.47;;;;;;;;;;5093925;28;20063;-74
2023/06/02 14:08:05;;;;;;;7.80;3.67;;;;;;;;;;5093572;28;20040;-74
2023/06/02 14:10:34;;;;;;;6.03;3.70;;;;;;;;;;5093787;28;20048;-74
2023/06/02 14:13:01;;;;;;;6.82;3.80;;;;;;;;;;5093672;28;20040;-77
2023/06/02 14:15:30;;;;;;;6.75;3.95;;;;;;;;;;5092187;28;20052;-75
2023/06/02 14:17:57;;;;;;;5.28;3.85;;;;;;;;;;5093618;28;20047;-77
2023/06/02 14:20:25;;;;;;;6.85;4.47;;;;;;;;;;5092461;28;20048;-77
2023/06/02 14:22:52;;;;;;;7.38;5.70;;;;;;;;;;5084247;28;20423;-78
2023/06/02 14:25:21;;;;;;;6.47;4.45;;;;;;;;;;5076847;28;20410;-74
2023/06/02 14:27:48;;;;;;;6.90;3.80;;;;;;;;;;5073218;28;20494;-77
2023/06/02 14:30:16;;;;;;;5.53;4.05;;;;;;;;;;5073161;28;20049;-75
2023/06/02 14:32:44;;;;;;;4.38;3.80;;;;;;;;;;5071707;28;20079;-76
2023/06/02 14:35:12;;;;;;;9.10;4.78;;;;;;;;;;5073227;28;20237;-77
2023/06/02 14:37:39;;;;;;;17.25;8.75;;;;;;;;;;5072937;28;20448;-76
2023/06/02 14:40:07;;;;;;;6.90;4.10;;;;;;;;;;5073043;28;20052;-76
2023/06/02 14:42:35;;;;;;;5.47;3.65;;;;;;;;;;5073084;28;20126;-75
2023/06/02 14:45:02;;;;;;;7.72;4.85;;;;;;;;;;5073399;28;20128;-77